Ellisburg, Pennsylvania
Current Conditions -  °F | °C
As of 4:30 AM on Wednesday 22 Oct 2014 (Local Time) from KELZ Reporting Station
Light Rain Light Rain  
Wind Chill:   Ceiling: 200
Heat Index:   Visibility: 1.7mi
Dew Point:   Wind: 6mph
Humidity: 96%   Direction: NA
Pressure: 30.05"   Gusts: NA
Location:  41.915°N, 77.8855°W
Report Text: KELZ 220830Z AUTO VRB05KT 1 3/4SM -RA BR OVC002 06/05 A3005 RMK AO2 P0000 T00560050
Loading
Personal Weather Stations






























Interactive Weather Map
Tropical Storm Tracking
New forecast layout! Learn more

10-Day Weather Forecast

Advertisements
Track Severe Weather on mobile